createdAt,value
2023-03-27T00:04:11.833Z,6.95
2023-03-27T00:09:22.041Z,5.82
2023-03-27T00:14:25.150Z,8.20
2023-03-27T00:19:28.346Z,7.18
2023-03-27T00:24:32.545Z,7.93
2023-03-27T00:29:35.535Z,6.90
2023-03-27T00:34:38.608Z,5.68
2023-03-27T00:39:42.799Z,6.20
2023-03-27T00:44:45.797Z,7.13
2023-03-27T00:49:51.288Z,6.55
2023-03-27T00:54:54.461Z,7.55
2023-03-27T01:00:00.240Z,9.23
2023-03-27T01:05:03.520Z,9.32
2023-03-27T01:10:08.792Z,15.98
2023-03-27T01:15:25.061Z,14.52
2023-03-27T01:20:59.999Z,11.32
2023-03-27T01:26:09.091Z,6.85
2023-03-27T01:31:41.844Z,8.02
2023-03-27T01:37:32.477Z,10.65
2023-03-27T01:42:53.685Z,8.27
2023-03-27T01:48:08.951Z,8.07
2023-03-27T01:53:17.366Z,7.20
2023-03-27T01:58:28.484Z,10.60
2023-03-27T02:03:37.298Z,9.52
2023-03-27T02:08:45.829Z,11.27
2023-03-27T02:14:01.255Z,9.65
2023-03-27T02:19:11.845Z,13.02
2023-03-27T02:24:18.136Z,10.38
2023-03-27T02:34:36.604Z,20.40
2023-03-27T02:39:57.968Z,16.92
2023-03-27T02:45:16.096Z,16.75
2023-03-27T02:50:25.784Z,22.05
2023-03-27T02:55:39.052Z,25.85
2023-03-27T03:00:49.505Z,22.25
2023-03-27T03:06:11.507Z,19.83
2023-03-27T03:11:15.392Z,17.65
2023-03-27T03:16:18.678Z,18.35
2023-03-27T03:21:21.948Z,28.23
2023-03-27T03:26:24.992Z,28.25
2023-03-27T03:31:28.503Z,28.67
2023-03-27T03:36:33.199Z,31.05
2023-03-27T03:41:36.465Z,28.08
2023-03-27T03:46:40.629Z,34.05
2023-03-27T03:51:43.685Z,29.40
2023-03-27T03:56:46.737Z,29.48
2023-03-27T04:01:49.951Z,36.38
2023-03-27T04:06:58.515Z,28.70
2023-03-27T04:12:07.559Z,34.08
2023-03-27T04:17:26.768Z,28.15
2023-03-27T04:22:31.590Z,55.17
2023-03-27T04:27:36.140Z,39.08
2023-03-27T04:32:53.665Z,45.08
2023-03-27T04:38:15.459Z,31.30
2023-03-27T04:43:26.249Z,26.42
2023-03-27T04:48:30.546Z,33.45
2023-03-27T04:53:36.473Z,26.48
2023-03-27T04:58:41.430Z,29.23
2023-03-27T05:03:49.570Z,33.67
2023-03-27T05:09:12.850Z,24.63
2023-03-27T05:14:20.224Z,25.33
2023-03-27T05:19:24.945Z,26.27
2023-03-27T05:24:34.783Z,21.63
2023-03-27T05:29:47.000Z,19.30
2023-03-27T05:34:54.814Z,26.10
2023-03-27T05:40:00.676Z,21.67
2023-03-27T05:45:04.317Z,22.02
2023-03-27T05:50:09.369Z,22.35
2023-03-27T05:55:15.031Z,27.42
2023-03-27T06:00:25.351Z,18.33
2023-03-27T06:05:30.446Z,16.20
2023-03-27T06:10:34.183Z,24.58
2023-03-27T06:15:54.915Z,14.45
2023-03-27T06:21:21.446Z,23.83
2023-03-27T06:26:31.831Z,12.85
2023-03-27T06:31:39.228Z,17.85
2023-03-27T06:36:50.280Z,22.10
2023-03-27T06:41:53.698Z,27.48
2023-03-27T06:47:04.287Z,15.07
2023-03-27T06:52:16.110Z,14.98
2023-03-27T06:57:20.535Z,15.35
2023-03-27T07:02:25.478Z,18.63
2023-03-27T07:07:49.053Z,22.15
2023-03-27T07:12:57.141Z,14.65
2023-03-27T07:18:03.776Z,15.40
2023-03-27T07:23:07.672Z,17.42
2023-03-27T07:28:40.267Z,17.40
2023-03-27T07:33:47.716Z,15.38
2023-03-27T07:38:51.388Z,15.75
2023-03-27T07:44:00.035Z,13.40
2023-03-27T07:49:11.421Z,16.55
2023-03-27T07:54:15.758Z,13.77
2023-03-27T07:59:32.809Z,18.90
2023-03-27T08:04:43.702Z,15.52
2023-03-27T08:09:47.417Z,10.68
2023-03-27T08:14:51.888Z,10.82
2023-03-27T08:20:09.545Z,12.52
2023-03-27T08:25:24.685Z,6.18
2023-03-27T08:30:28.972Z,8.20
2023-03-27T08:35:32.937Z,11.10
2023-03-27T08:40:38.849Z,5.15
2023-03-27T08:46:22.947Z,7.35
2023-03-27T08:52:14.881Z,6.97
2023-03-27T09:02:48.831Z,8.57
2023-03-27T09:08:11.000Z,4.50
2023-03-27T09:13:22.097Z,8.05
2023-03-27T09:18:56.658Z,12.98
2023-03-27T09:24:08.883Z,6.60
2023-03-27T09:29:42.117Z,8.35
2023-03-27T09:35:06.028Z,4.90
2023-03-27T09:40:23.966Z,7.43
2023-03-27T09:45:30.430Z,5.28
2023-03-27T09:50:44.770Z,9.38
2023-03-27T09:55:59.603Z,7.25
2023-03-27T10:01:07.658Z,10.43
2023-03-27T10:06:16.291Z,7.30
2023-03-27T10:11:36.205Z,6.68
2023-03-27T10:16:48.116Z,7.07
2023-03-27T10:21:52.989Z,4.30
2023-03-27T10:27:02.477Z,9.70
2023-03-27T10:32:06.617Z,8.05
2023-03-27T10:37:26.916Z,4.75
2023-03-27T10:42:38.720Z,4.93
2023-03-27T10:47:48.599Z,12.70
2023-03-27T10:53:17.498Z,7.68
2023-03-27T10:58:34.754Z,4.03
2023-03-27T11:03:54.698Z,4.65
2023-03-27T11:09:16.421Z,12.27
2023-03-27T11:14:53.677Z,6.38
2023-03-27T11:20:11.481Z,12.45
2023-03-27T11:25:49.625Z,12.63
2023-03-27T11:31:24.761Z,12.82
2023-03-27T11:36:37.934Z,14.75
2023-03-27T11:41:56.676Z,14.40
2023-03-27T11:47:25.280Z,9.80
2023-03-27T11:52:52.073Z,16.13
2023-03-27T11:58:16.522Z,12.02
2023-03-27T12:03:58.039Z,15.02
2023-03-27T12:09:26.394Z,10.75
2023-03-27T12:15:13.264Z,9.38
2023-03-27T12:20:51.893Z,10.80
2023-03-27T12:26:09.495Z,11.52
2023-03-27T12:31:54.933Z,13.73
2023-03-27T12:37:00.286Z,13.43
2023-03-27T12:42:14.784Z,12.65
2023-03-27T12:47:25.140Z,11.38
2023-03-27T12:52:45.911Z,18.75
2023-03-27T12:57:55.067Z,13.65
2023-03-27T13:03:49.726Z,12.68
2023-03-27T13:09:07.569Z,15.40
2023-03-27T13:14:41.875Z,15.52
2023-03-27T13:20:16.912Z,13.30
2023-03-27T13:25:46.750Z,11.57
2023-03-27T13:30:53.002Z,15.82
2023-03-27T13:36:24.825Z,15.43
2023-03-27T13:41:44.460Z,13.90
2023-03-27T13:47:09.395Z,17.27
2023-03-27T13:52:34.815Z,16.83
2023-03-27T13:57:53.188Z,19.20
2023-03-27T14:03:25.463Z,16.73
2023-03-27T14:08:53.278Z,22.38
2023-03-27T14:14:54.751Z,19.85
2023-03-27T14:20:13.519Z,17.38
2023-03-27T14:25:38.673Z,19.42
2023-03-27T14:31:04.667Z,20.80
2023-03-27T14:36:46.750Z,22.08
2023-03-27T14:41:56.045Z,19.42
2023-03-27T14:47:08.685Z,21.38
2023-03-27T14:52:25.300Z,19.02
2023-03-27T14:57:50.563Z,22.77
2023-03-27T15:02:55.490Z,20.67
2023-03-27T15:08:00.709Z,21.60
2023-03-27T15:13:38.883Z,14.18
2023-03-27T15:19:19.869Z,9.18
2023-03-27T15:24:40.386Z,13.70
2023-03-27T15:29:50.352Z,8.68
2023-03-27T15:34:58.332Z,11.57
2023-03-27T15:40:09.642Z,8.85
2023-03-27T15:45:15.439Z,2.67
2023-03-27T15:50:22.986Z,3.92
2023-03-27T15:55:55.766Z,12.82
2023-03-27T16:01:18.639Z,2.78
2023-03-27T16:06:37.842Z,1.58
2023-03-27T16:11:43.803Z,6.10
2023-03-27T16:16:46.952Z,12.98
2023-03-27T16:21:57.590Z,29.98
2023-03-27T16:27:00.994Z,6.63
2023-03-27T16:32:04.203Z,7.47
2023-03-27T16:37:07.976Z,9.90
2023-03-27T16:42:13.542Z,9.63
2023-03-27T16:47:17.097Z,10.13
2023-03-27T16:52:20.299Z,11.63
2023-03-27T16:57:24.759Z,10.65
2023-03-27T17:02:29.069Z,13.48
2023-03-27T17:07:32.243Z,10.70
2023-03-27T17:12:35.361Z,15.07
2023-03-27T17:17:38.456Z,15.13
2023-03-27T17:22:41.620Z,13.52
2023-03-27T17:27:44.664Z,11.20
2023-03-27T17:32:47.824Z,12.30
2023-03-27T17:37:51.253Z,10.07
2023-03-27T17:42:54.351Z,9.30
2023-03-27T17:48:04.382Z,8.80
2023-03-27T17:53:08.260Z,10.90
2023-03-27T17:58:12.601Z,8.55
2023-03-27T18:03:16.744Z,11.13
2023-03-27T18:08:22.722Z,9.98
2023-03-27T18:13:25.940Z,9.45
2023-03-27T18:18:29.042Z,7.20
2023-03-27T18:23:32.329Z,8.75
2023-03-27T18:28:36.190Z,9.90
2023-03-27T18:33:39.641Z,7.43
2023-03-27T18:38:42.906Z,8.60
2023-03-27T18:43:45.957Z,10.88
2023-03-27T18:48:49.580Z,5.95
2023-03-27T18:53:52.653Z,9.25
2023-03-27T18:58:55.691Z,6.80
2023-03-27T19:03:58.774Z,5.32
2023-03-27T19:09:02.029Z,4.13
2023-03-27T19:14:05.501Z,3.50
2023-03-27T19:19:40.242Z,4.20
2023-03-27T19:24:54.796Z,4.57
2023-03-27T19:29:57.833Z,5.80
2023-03-27T19:35:01.031Z,5.35
2023-03-27T19:40:05.759Z,4.93
2023-03-27T19:45:09.338Z,3.88
2023-03-27T19:50:14.872Z,2.85
2023-03-27T19:55:43.962Z,3.90
2023-03-27T20:00:50.419Z,3.13
2023-03-27T20:05:56.376Z,4.38
2023-03-27T20:11:11.209Z,2.95
2023-03-27T20:16:15.323Z,13.00
2023-03-27T20:21:24.965Z,2.85
2023-03-27T20:26:30.224Z,5.63
2023-03-27T20:31:41.767Z,3.67
2023-03-27T20:36:45.181Z,2.72
2023-03-27T20:42:15.244Z,4.18
2023-03-27T20:47:19.431Z,3.70
2023-03-27T20:52:23.676Z,4.35
2023-03-27T20:57:26.820Z,5.93
2023-03-27T21:02:29.902Z,5.47
2023-03-27T21:07:34.462Z,4.57
2023-03-27T21:12:38.755Z,4.93
2023-03-27T21:17:43.479Z,5.97
2023-03-27T21:22:46.593Z,7.75
2023-03-27T21:27:49.875Z,8.88
2023-03-27T21:32:52.953Z,4.15
2023-03-27T21:37:56.017Z,6.18
2023-03-27T21:43:00.147Z,6.50
2023-03-27T21:48:03.448Z,4.07
2023-03-27T21:53:06.534Z,5.00
2023-03-27T21:58:09.950Z,4.57
2023-03-27T22:03:15.407Z,7.45
2023-03-27T22:08:19.524Z,4.43
2023-03-27T22:13:22.626Z,3.72
2023-03-27T22:18:25.902Z,3.80
2023-03-27T22:23:28.927Z,3.85
2023-03-27T22:28:31.969Z,5.50
2023-03-27T22:33:35.885Z,8.85
2023-03-27T22:38:39.810Z,6.97
2023-03-27T22:43:43.153Z,6.88
2023-03-27T22:48:46.183Z,7.10
2023-03-27T22:53:49.198Z,9.30
2023-03-27T22:58:52.301Z,10.18
2023-03-27T23:03:55.428Z,8.07
2023-03-27T23:08:58.623Z,9.85
2023-03-27T23:14:01.690Z,12.90
2023-03-27T23:19:05.146Z,11.52
2023-03-27T23:24:08.372Z,14.52
2023-03-27T23:29:11.468Z,14.95
2023-03-27T23:34:14.501Z,11.57
2023-03-27T23:39:17.579Z,16.45
2023-03-27T23:44:20.626Z,13.85
2023-03-27T23:49:23.670Z,14.05
2023-03-27T23:54:26.734Z,20.23
2023-03-27T23:59:38.197Z,17.08
